Time;durP1;ratioP1;P1;durP2;ratioP2;P2;SDS_P1;SDS_P2;PMS_P1;PMS_P2;Temp;Humidity;BMP_temperature;BMP_pressure;BME280_temperature;BME280_humidity;BME280_pressure;Samples;Min_cycle;Max_cycle;Signal;HPM_P1;HPM_P2
2023/12/09 00:02:24;;;;;;;10.27;2.22;;;8.60;99.90;;;;;;4897639;29;20621;-86
2023/12/09 00:04:49;;;;;;;13.35;1.52;;;8.60;99.90;;;;;;4895806;29;20036;-87
2023/12/09 00:07:15;;;;;;;14.50;2.30;;;8.60;99.90;;;;;;4894569;29;20052;-88
2023/12/09 00:09:40;;;;;;;11.82;1.67;;;8.60;99.90;;;;;;4895036;29;20045;-87
2023/12/09 00:12:06;;;;;;;10.50;1.17;;;8.60;99.90;;;;;;4892721;29;20088;-86
2023/12/09 00:14:32;;;;;;;12.30;1.90;;;8.60;99.90;;;;;;4902603;29;20040;-86
2023/12/09 00:16:57;;;;;;;10.32;1.30;;;8.60;99.90;;;;;;4897710;29;20052;-85
2023/12/09 00:19:23;;;;;;;4.80;1.30;;;8.60;99.90;;;;;;4899349;29;20741;-85
2023/12/09 00:21:49;;;;;;;8.43;1.27;;;8.60;99.90;;;;;;4898227;29;20273;-86
2023/12/09 00:24:14;;;;;;;5.57;1.10;;;8.70;99.90;;;;;;4896054;29;20107;-87
2023/12/09 00:26:40;;;;;;;11.60;1.38;;;8.60;99.90;;;;;;4898769;29;20059;-86
2023/12/09 00:29:05;;;;;;;8.15;1.55;;;8.60;99.90;;;;;;4901615;29;20036;-86
2023/12/09 00:31:31;;;;;;;10.10;1.85;;;8.60;99.90;;;;;;4904007;29;20028;-86
2023/12/09 00:33:57;;;;;;;8.07;1.88;;;8.60;99.90;;;;;;4899652;29;20036;-86
2023/12/09 00:36:22;;;;;;;12.95;1.27;;;8.70;99.90;;;;;;4897161;29;20599;-86
2023/12/09 00:38:48;;;;;;;10.50;2.67;;;8.60;99.90;;;;;;4904305;29;20042;-85
2023/12/09 00:41:13;;;;;;;11.23;1.20;;;8.60;99.90;;;;;;4895468;29;20028;-85
2023/12/09 00:43:39;;;;;;;15.80;1.95;;;8.50;99.90;;;;;;4896851;29;20032;-86
2023/12/09 00:46:05;;;;;;;14.70;1.77;;;8.50;99.90;;;;;;4899586;29;21249;-85
2023/12/09 00:48:31;;;;;;;10.20;1.98;;;8.40;99.90;;;;;;4899137;29;20054;-86
2023/12/09 00:50:56;;;;;;;12.73;2.05;;;8.40;99.90;;;;;;4899384;29;20039;-85
2023/12/09 00:53:22;;;;;;;10.00;1.38;;;8.40;99.90;;;;;;4894347;29;20897;-86
2023/12/09 00:55:47;;;;;;;18.05;1.58;;;8.40;99.90;;;;;;4905728;29;20044;-85
2023/12/09 00:58:13;;;;;;;12.85;1.58;;;8.30;99.90;;;;;;4915276;29;20095;-86
2023/12/09 01:00:38;;;;;;;13.35;1.50;;;8.30;99.90;;;;;;4912854;29;20127;-86
2023/12/09 01:03:04;;;;;;;10.30;1.90;;;8.30;99.90;;;;;;4905364;29;20484;-86
2023/12/09 01:05:30;;;;;;;14.35;1.70;;;8.30;99.90;;;;;;4907234;29;20040;-85
2023/12/09 01:07:56;;;;;;;10.75;1.60;;;8.20;99.90;;;;;;4906929;29;20156;-85
2023/12/09 01:10:21;;;;;;;10.10;1.80;;;8.20;99.90;;;;;;4913555;29;20546;-85
2023/12/09 01:12:47;;;;;;;12.27;1.63;;;8.20;99.90;;;;;;4917629;29;20187;-85
2023/12/09 01:15:13;;;;;;;11.18;1.80;;;8.10;99.90;;;;;;4910945;29;21308;-86
2023/12/09 01:17:38;;;;;;;13.65;1.85;;;8.10;99.90;;;;;;4911993;29;20484;-85
2023/12/09 01:20:04;;;;;;;12.20;2.05;;;8.10;99.90;;;;;;4916762;29;20238;-85
2023/12/09 01:22:30;;;;;;;12.98;1.90;;;8.10;99.90;;;;;;4917679;29;20114;-85
2023/12/09 01:24:56;;;;;;;15.20;1.70;;;8.10;99.90;;;;;;4916818;29;20401;-85
2023/12/09 01:27:21;;;;;;;13.57;1.80;;;8.20;99.90;;;;;;4913685;29;20039;-85
2023/12/09 01:29:47;;;;;;;19.45;2.30;;;8.20;99.90;;;;;;4923367;28;20032;-83
2023/12/09 01:32:13;;;;;;;13.80;1.60;;;8.20;99.90;;;;;;4947923;28;20032;-83
2023/12/09 01:34:40;;;;;;;20.05;2.35;;;8.20;99.90;;;;;;4940869;29;20016;-83
2023/12/09 01:37:06;;;;;;;25.65;2.60;;;8.20;99.90;;;;;;4940506;29;20193;-83
2023/12/09 01:39:32;;;;;;;17.45;2.13;;;8.30;99.90;;;;;;4922896;29;20043;-83
2023/12/09 01:41:57;;;;;;;22.33;2.35;;;8.40;99.90;;;;;;4923024;29;20043;-83
2023/12/09 01:44:23;;;;;;;18.00;3.25;;;8.40;99.90;;;;;;4921007;29;20085;-82
2023/12/09 01:46:49;;;;;;;18.52;2.40;;;8.50;99.90;;;;;;4921573;29;20038;-83
2023/12/09 01:49:15;;;;;;;22.55;2.50;;;8.50;99.90;;;;;;4924271;29;20315;-83
2023/12/09 01:51:42;;;;;;;13.27;1.92;;;8.60;99.90;;;;;;4922380;29;20027;-82
2023/12/09 01:54:09;;;;;;;18.88;2.53;;;8.70;99.90;;;;;;4920549;29;20024;-82
2023/12/09 01:56:35;;;;;;;22.40;2.63;;;8.70;99.90;;;;;;4921156;29;20047;-83
2023/12/09 01:59:00;;;;;;;26.17;3.30;;;8.90;99.90;;;;;;4915079;29;20032;-83
2023/12/09 02:01:27;;;;;;;19.17;2.70;;;8.90;99.90;;;;;;4916539;29;20032;-83
2023/12/09 02:03:54;;;;;;;30.40;3.33;;;8.90;99.90;;;;;;4915128;29;20114;-83
2023/12/09 02:06:20;;;;;;;13.48;1.42;;;8.90;99.90;;;;;;4915131;29;20137;-83
2023/12/09 02:08:45;;;;;;;16.42;2.72;;;8.90;99.90;;;;;;4912766;29;20165;-83
2023/12/09 02:11:31;;;;;;;21.52;2.85;;;9.00;99.90;;;;;;4914468;29;21564;-83
2023/12/09 02:14:05;;;;;;;18.75;2.15;;;9.00;99.90;;;;;;4916144;29;20098;-82
2023/12/09 02:16:53;;;;;;;13.75;2.33;;;9.00;99.90;;;;;;4916758;29;20032;-83
2023/12/09 02:19:20;;;;;;;17.88;2.85;;;9.10;99.90;;;;;;4915754;29;20145;-83
2023/12/09 02:22:06;;;;;;;15.57;2.30;;;9.10;99.90;;;;;;4916936;29;20154;-83
2023/12/09 02:24:33;;;;;;;21.00;3.40;;;9.20;99.90;;;;;;4916609;29;20106;-83
2023/12/09 02:27:13;;;;;;;21.92;2.13;;;9.20;99.90;;;;;;4912135;29;20090;-82
2023/12/09 02:29:59;;;;;;;23.25;3.30;;;9.30;99.90;;;;;;4913143;29;20119;-82
2023/12/09 02:32:29;;;;;;;16.33;2.17;;;9.30;99.90;;;;;;4911832;29;20024;-83
2023/12/09 02:34:56;;;;;;;12.65;1.75;;;9.40;99.90;;;;;;4913323;29;20548;-82
2023/12/09 02:37:22;;;;;;;17.00;2.70;;;9.40;99.90;;;;;;4911816;29;20437;-82
2023/12/09 02:39:48;;;;;;;15.38;2.10;;;9.50;99.90;;;;;;4915972;29;20039;-81
2023/12/09 02:42:16;;;;;;;24.33;3.60;;;9.50;99.90;;;;;;4915796;29;20062;-83
2023/12/09 02:44:42;;;;;;;22.15;2.58;;;9.40;99.90;;;;;;4915345;29;20062;-82
2023/12/09 02:47:13;;;;;;;16.85;2.85;;;9.50;99.90;;;;;;4915589;29;20062;-82
2023/12/09 02:49:39;;;;;;;9.55;1.48;;;9.50;99.90;;;;;;4915431;29;20385;-82
2023/12/09 02:52:04;;;;;;;17.77;3.00;;;9.50;99.90;;;;;;4919373;29;20038;-82
2023/12/09 02:54:30;;;;;;;10.63;2.30;;;9.50;99.90;;;;;;4922036;29;21054;-82
2023/12/09 02:56:56;;;;;;;18.48;2.45;;;9.50;99.90;;;;;;4916742;29;20078;-82
2023/12/09 02:59:21;;;;;;;19.02;2.42;;;9.50;99.90;;;;;;4912200;29;20115;-82
2023/12/09 03:01:47;;;;;;;16.63;2.97;;;9.50;99.90;;;;;;4914565;29;20071;-82
2023/12/09 03:04:14;;;;;;;16.48;2.45;;;9.50;99.90;;;;;;4916617;29;20276;-82
2023/12/09 03:06:39;;;;;;;11.02;1.85;;;9.40;99.90;;;;;;4916737;29;20035;-82
2023/12/09 03:09:05;;;;;;;13.38;2.38;;;9.40;99.90;;;;;;4914562;29;20268;-82
2023/12/09 03:11:31;;;;;;;20.10;2.17;;;9.40;99.90;;;;;;4919856;29;20135;-81
2023/12/09 03:13:56;;;;;;;14.48;1.90;;;9.40;99.90;;;;;;4920945;29;20047;-81
2023/12/09 03:16:22;;;;;;;12.60;2.03;;;9.40;99.90;;;;;;4916484;28;20060;-82
2023/12/09 03:18:47;;;;;;;11.27;2.00;;;9.30;99.90;;;;;;4915472;29;20046;-82
2023/12/09 03:21:15;;;;;;;17.73;2.50;;;9.40;99.90;;;;;;4916592;29;20058;-82
2023/12/09 03:23:42;;;;;;;12.27;1.70;;;9.40;99.90;;;;;;4917500;29;20046;-82
2023/12/09 03:26:17;;;;;;;10.77;1.70;;;9.40;99.90;;;;;;4916884;29;20467;-83
2023/12/09 03:28:43;;;;;;;12.13;1.73;;;9.30;99.90;;;;;;4916027;29;20043;-83
2023/12/09 03:31:11;;;;;;;11.55;1.77;;;9.30;99.90;;;;;;4921164;29;20042;-82
2023/12/09 03:33:37;;;;;;;13.90;2.15;;;9.30;99.90;;;;;;4941732;29;20035;-83
2023/12/09 03:36:04;;;;;;;10.70;1.48;;;9.30;99.90;;;;;;4944921;29;20067;-83
2023/12/09 03:38:29;;;;;;;10.95;1.67;;;9.30;99.90;;;;;;4944222;29;20031;-85
2023/12/09 03:40:55;;;;;;;9.05;1.83;;;9.20;99.90;;;;;;4932783;28;20039;-84
2023/12/09 03:43:20;;;;;;;13.77;2.05;;;9.10;99.90;;;;;;4921736;29;20063;-85
2023/12/09 03:45:46;;;;;;;17.17;4.30;;;9.20;99.90;;;;;;4917967;29;20519;-85
2023/12/09 03:48:12;;;;;;;13.77;2.05;;;9.10;99.90;;;;;;4913850;29;20031;-84
2023/12/09 03:50:37;;;;;;;14.73;2.03;;;9.10;99.90;;;;;;4917729;29;20233;-86
2023/12/09 03:53:03;;;;;;;18.55;2.38;;;9.10;99.90;;;;;;4922292;29;20042;-85
2023/12/09 03:55:29;;;;;;;25.55;3.38;;;9.10;99.90;;;;;;4918058;29;20044;-86
2023/12/09 03:57:55;;;;;;;18.55;2.80;;;9.10;99.90;;;;;;4916572;29;20367;-86
2023/12/09 04:00:22;;;;;;;20.45;3.67;;;9.10;99.90;;;;;;4916738;29;20031;-86
2023/12/09 04:02:48;;;;;;;21.02;3.40;;;9.00;99.90;;;;;;4914393;29;20187;-86
2023/12/09 04:05:14;;;;;;;12.20;2.20;;;9.00;99.90;;;;;;4915334;29;20044;-86
2023/12/09 04:07:40;;;;;;;19.20;2.85;;;9.20;99.90;;;;;;4916339;29;20028;-86
2023/12/09 04:10:06;;;;;;;16.35;2.75;;;9.10;99.90;;;;;;4917579;29;20168;-86
2023/12/09 04:12:32;;;;;;;14.93;2.10;;;9.10;99.90;;;;;;4923660;29;20491;-85
2023/12/09 04:14:58;;;;;;;13.68;2.92;;;9.20;99.90;;;;;;4921132;29;20177;-84
2023/12/09 04:17:23;;;;;;;18.35;2.20;;;9.20;99.90;;;;;;4918074;29;20046;-85
2023/12/09 04:19:51;;;;;;;18.60;2.60;;;9.10;99.90;;;;;;4915218;29;20027;-86
2023/12/09 04:22:17;;;;;;;20.23;2.72;;;9.20;99.90;;;;;;4918774;29;20040;-86
2023/12/09 04:24:42;;;;;;;17.77;2.65;;;9.30;99.90;;;;;;4919830;29;20086;-85
2023/12/09 04:27:08;;;;;;;23.73;2.75;;;9.30;99.90;;;;;;4913724;29;20042;-85
2023/12/09 04:29:34;;;;;;;21.92;3.38;;;9.30;99.90;;;;;;4912849;29;20039;-85
2023/12/09 04:32:00;;;;;;;17.67;3.03;;;9.40;99.90;;;;;;4912916;29;20038;-85
2023/12/09 04:34:26;;;;;;;20.05;2.42;;;9.40;99.90;;;;;;4916969;29;20028;-86
2023/12/09 04:36:51;;;;;;;19.38;4.47;;;9.40;99.90;;;;;;4920819;29;20070;-86
2023/12/09 04:39:17;;;;;;;26.05;2.90;;;9.50;99.90;;;;;;4916998;29;20289;-86
2023/12/09 04:41:45;;;;;;;19.75;2.90;;;9.40;99.90;;;;;;4923169;29;20038;-83
2023/12/09 04:44:11;;;;;;;16.10;2.38;;;9.40;99.90;;;;;;4919105;28;20043;-83
2023/12/09 04:46:37;;;;;;;18.95;2.42;;;9.50;99.90;;;;;;4921396;29;20031;-83
2023/12/09 04:49:02;;;;;;;16.67;2.00;;;9.40;99.90;;;;;;4920399;29;20398;-84
2023/12/09 04:51:28;;;;;;;17.00;2.80;;;9.40;99.90;;;;;;4917371;29;20031;-86
2023/12/09 04:53:53;;;;;;;15.07;1.85;;;9.40;99.90;;;;;;4926182;29;20031;-83
2023/12/09 04:56:19;;;;;;;20.83;3.35;;;9.40;99.90;;;;;;4924552;29;20131;-85
2023/12/09 04:58:45;;;;;;;17.02;2.53;;;9.40;99.90;;;;;;4924505;29;20031;-85
2023/12/09 05:01:10;;;;;;;19.80;3.08;;;9.30;99.90;;;;;;4924543;29;20032;-87
2023/12/09 05:03:36;;;;;;;17.90;3.08;;;9.30;99.90;;;;;;4924337;29;20106;-87
2023/12/09 05:06:04;;;;;;;22.00;2.55;;;9.20;99.90;;;;;;4923511;29;20481;-87
2023/12/09 05:08:30;;;;;;;16.08;2.42;;;9.20;99.90;;;;;;4920287;29;20780;-87
2023/12/09 05:10:56;;;;;;;18.25;2.85;;;9.20;99.90;;;;;;4923877;29;20042;-87
2023/12/09 05:13:21;;;;;;;11.73;2.05;;;9.20;99.90;;;;;;4925678;29;20424;-85
2023/12/09 05:15:48;;;;;;;15.50;2.33;;;9.10;99.90;;;;;;4926575;29;20059;-86
2023/12/09 05:18:14;;;;;;;20.42;2.88;;;9.20;99.90;;;;;;4925823;29;20103;-85
2023/12/09 05:20:39;;;;;;;19.60;3.92;;;9.10;99.90;;;;;;4924810;29;20036;-83
2023/12/09 05:23:06;;;;;;;24.52;2.63;;;9.20;99.90;;;;;;4926777;29;20035;-86
2023/12/09 05:25:32;;;;;;;12.68;2.13;;;9.10;99.90;;;;;;4923380;29;20071;-83
2023/12/09 05:27:58;;;;;;;18.88;2.60;;;9.10;99.90;;;;;;4920530;29;20123;-84
2023/12/09 05:30:23;;;;;;;13.13;2.05;;;9.10;99.90;;;;;;4919215;29;20039;-82
2023/12/09 05:32:49;;;;;;;12.65;2.10;;;9.00;99.90;;;;;;4921073;29;20135;-82
2023/12/09 05:35:15;;;;;;;18.88;2.40;;;9.00;99.90;;;;;;4917814;29;20027;-82
2023/12/09 05:37:40;;;;;;;13.68;1.90;;;9.00;99.90;;;;;;4916334;29;20576;-81
2023/12/09 05:40:07;;;;;;;12.10;2.00;;;9.00;99.90;;;;;;4919163;29;20770;-81
2023/12/09 05:42:33;;;;;;;11.90;1.90;;;9.00;99.90;;;;;;4923244;29;20047;-81
2023/12/09 05:44:59;;;;;;;14.40;2.20;;;9.00;99.90;;;;;;4926286;29;20586;-82
2023/12/09 05:47:25;;;;;;;12.38;2.10;;;8.90;99.90;;;;;;4923650;29;20077;-81
2023/12/09 05:49:50;;;;;;;17.50;2.10;;;9.00;99.90;;;;;;4920330;29;20055;-80
2023/12/09 05:52:16;;;;;;;23.75;2.38;;;9.10;99.90;;;;;;4922943;29;20034;-78
2023/12/09 05:54:42;;;;;;;15.70;2.10;;;9.10;99.90;;;;;;4921863;28;20127;-79
2023/12/09 05:57:07;;;;;;;16.05;2.58;;;9.10;99.90;;;;;;4916198;29;20044;-78
2023/12/09 05:59:33;;;;;;;12.88;2.33;;;9.10;99.90;;;;;;4917053;29;20090;-79
2023/12/09 06:01:59;;;;;;;10.23;1.80;;;9.10;99.90;;;;;;4914030;29;20533;-78
2023/12/09 06:04:24;;;;;;;19.20;3.13;;;9.10;99.90;;;;;;4916959;28;20036;-86
2023/12/09 06:06:51;;;;;;;11.23;1.60;;;9.20;99.90;;;;;;4913816;29;20559;-86
2023/12/09 06:09:17;;;;;;;12.02;2.03;;;9.20;99.90;;;;;;4919405;29;20035;-85
2023/12/09 06:11:42;;;;;;;14.48;2.13;;;9.20;99.90;;;;;;4919326;29;20051;-86
2023/12/09 06:14:08;;;;;;;10.98;1.98;;;9.20;99.90;;;;;;4923832;29;20075;-87
2023/12/09 06:16:34;;;;;;;16.83;2.25;;;9.20;99.90;;;;;;4924591;29;20115;-86
2023/12/09 06:18:59;;;;;;;15.93;2.25;;;9.20;99.90;;;;;;4920675;29;20044;-85
2023/12/09 06:21:26;;;;;;;12.00;1.92;;;9.20;99.90;;;;;;4917574;29;20032;-85
2023/12/09 06:23:53;;;;;;;7.55;1.65;;;9.30;99.90;;;;;;4920519;29;20032;-85
2023/12/09 06:26:19;;;;;;;9.70;2.10;;;9.20;99.90;;;;;;4922032;29;20041;-84
2023/12/09 06:28:45;;;;;;;12.32;2.42;;;9.30;99.90;;;;;;4922469;29;20052;-86
2023/12/09 06:31:11;;;;;;;13.80;1.85;;;9.30;99.90;;;;;;4917307;29;20063;-87
2023/12/09 06:33:37;;;;;;;14.05;3.38;;;9.40;99.90;;;;;;4920489;29;20043;-86
2023/12/09 06:36:04;;;;;;;17.67;2.17;;;9.40;99.90;;;;;;4923025;28;20036;-85
2023/12/09 06:38:30;;;;;;;10.10;2.08;;;9.40;99.90;;;;;;4922598;29;20028;-86
2023/12/09 06:40:55;;;;;;;17.67;2.35;;;9.40;99.90;;;;;;4921492;29;20428;-85
2023/12/09 06:43:21;;;;;;;11.18;2.00;;;9.40;99.90;;;;;;4921905;29;20401;-85
2023/12/09 06:45:47;;;;;;;9.60;2.40;;;9.40;99.90;;;;;;4918814;29;20031;-84
2023/12/09 06:48:12;;;;;;;11.77;2.17;;;9.40;99.90;;;;;;4917695;29;20062;-84
2023/12/09 06:50:39;;;;;;;9.15;1.55;;;9.40;99.90;;;;;;4917346;29;20039;-84
2023/12/09 06:53:04;;;;;;;15.60;2.45;;;9.40;99.90;;;;;;4916982;29;20090;-84
2023/12/09 06:55:30;;;;;;;5.43;1.55;;;9.50;99.90;;;;;;4916608;29;20056;-82
2023/12/09 06:57:56;;;;;;;8.02;1.85;;;9.40;99.90;;;;;;4907934;29;20035;-82
2023/12/09 07:00:21;;;;;;;10.82;2.72;;;9.50;99.90;;;;;;4910789;29;20138;-82
2023/12/09 07:02:47;;;;;;;7.65;1.63;;;9.50;99.90;;;;;;4907176;29;20496;-81
2023/12/09 07:05:13;;;;;;;7.90;1.70;;;9.50;99.90;;;;;;4913718;29;20576;-81
2023/12/09 07:07:40;;;;;;;8.35;1.50;;;9.50;99.90;;;;;;4912911;29;20040;-80
2023/12/09 07:10:07;;;;;;;9.85;1.80;;;9.50;99.90;;;;;;4911812;29;20479;-80
2023/12/09 07:12:32;;;;;;;9.63;2.08;;;9.50;99.90;;;;;;4922639;29;20052;-81
2023/12/09 07:14:59;;;;;;;8.70;1.40;;;9.40;99.90;;;;;;4921909;29;20040;-79
2023/12/09 07:17:25;;;;;;;6.50;1.50;;;9.50;99.90;;;;;;4919675;29;21344;-79
2023/12/09 07:19:52;;;;;;;10.82;1.80;;;9.40;99.90;;;;;;4916092;29;20028;-77
2023/12/09 07:22:19;;;;;;;6.43;1.67;;;9.40;99.90;;;;;;4918494;29;20312;-81
2023/12/09 07:24:44;;;;;;;12.32;1.90;;;9.30;99.90;;;;;;4923380;29;20036;-80
2023/12/09 07:27:10;;;;;;;5.55;1.15;;;9.40;99.90;;;;;;4921950;29;20028;-92
2023/12/09 07:29:36;;;;;;;2.50;0.93;;;9.40;99.90;;;;;;4919793;29;20058;-93
2023/12/09 07:32:02;;;;;;;9.05;1.30;;;9.40;99.90;;;;;;4920596;29;20035;-92
2023/12/09 07:34:28;;;;;;;7.30;1.50;;;9.50;99.90;;;;;;4920464;29;20027;-92
2023/12/09 07:36:53;;;;;;;9.93;1.60;;;9.50;99.90;;;;;;4924693;29;20042;-92
2023/12/09 07:39:19;;;;;;;5.20;1.40;;;9.50;99.90;;;;;;4925491;29;20083;-93
2023/12/09 07:41:47;;;;;;;5.30;1.35;;;9.50;99.90;;;;;;4926430;29;20072;-93
2023/12/09 07:46:50;;;;;;;5.28;1.55;;;9.50;99.90;;;;;;4917874;29;20060;-92
2023/12/09 07:49:27;;;;;;;12.30;1.70;;;9.50;99.90;;;;;;4917941;29;20145;-92
2023/12/09 07:51:53;;;;;;;18.27;1.90;;;9.50;99.90;;;;;;4911272;29;20448;-91
2023/12/09 07:54:19;;;;;;;9.55;1.70;;;9.60;99.90;;;;;;4907579;29;20036;-91
2023/12/09 07:56:45;;;;;;;8.88;1.73;;;9.50;99.90;;;;;;4916579;29;20752;-91
2023/12/09 07:59:10;;;;;;;8.40;1.63;;;9.60;99.90;;;;;;4913292;29;20059;-91
2023/12/09 08:01:37;;;;;;;5.97;1.10;;;9.60;99.90;;;;;;4916398;29;20039;-90
2023/12/09 08:04:03;;;;;;;5.82;1.17;;;9.60;99.90;;;;;;4919490;29;20044;-89
2023/12/09 08:06:28;;;;;;;5.53;1.17;;;9.60;99.90;;;;;;4915545;29;20031;-90
2023/12/09 08:08:54;;;;;;;6.93;1.10;;;9.60;99.90;;;;;;4919820;29;20020;-90
2023/12/09 08:11:20;;;;;;;2.58;1.08;;;9.60;99.90;;;;;;4915418;29;20035;-90
2023/12/09 08:13:47;;;;;;;2.95;1.20;;;9.50;99.90;;;;;;4914128;29;20506;-89
2023/12/09 08:16:13;;;;;;;7.53;1.10;;;9.60;99.90;;;;;;4914426;29;20095;-90
2023/12/09 08:18:39;;;;;;;3.13;0.90;;;9.60;99.90;;;;;;4920750;29;20039;-88
2023/12/09 08:21:08;;;;;;;2.05;0.47;;;9.60;99.90;;;;;;4917322;29;20046;-90
2023/12/09 08:23:34;;;;;;;2.50;0.68;;;9.70;99.90;;;;;;4907223;29;20048;-89
2023/12/09 08:25:59;;;;;;;6.93;1.40;;;9.50;99.90;;;;;;4912352;29;20032;-88
2023/12/09 08:28:27;;;;;;;6.38;0.95;;;9.60;99.90;;;;;;4911148;29;20028;-88
2023/12/09 08:30:53;;;;;;;4.07;1.10;;;9.60;99.90;;;;;;4911886;29;20313;-88
2023/12/09 08:33:18;;;;;;;1.80;0.77;;;9.50;99.90;;;;;;4914859;29;20047;-86
2023/12/09 08:35:44;;;;;;;3.90;0.70;;;9.60;99.90;;;;;;4913589;29;20039;-91
2023/12/09 08:38:10;;;;;;;9.57;1.25;;;9.60;99.90;;;;;;4912255;29;20412;-94
2023/12/09 08:40:35;;;;;;;2.97;0.63;;;9.60;99.90;;;;;;4910346;29;20578;-92
2023/12/09 08:43:01;;;;;;;2.03;0.60;;;9.60;99.90;;;;;;4910462;29;20032;-90
2023/12/09 08:45:29;;;;;;;3.47;0.77;;;9.60;99.90;;;;;;4917511;29;20067;-90
2023/12/09 08:47:54;;;;;;;0.80;0.52;;;9.60;99.90;;;;;;4916260;29;20270;-89
2023/12/09 08:50:20;;;;;;;3.13;1.00;;;9.70;99.90;;;;;;4915969;29;20369;-89
2023/12/09 08:52:46;;;;;;;2.88;1.10;;;9.60;99.90;;;;;;4910660;29;20446;-89
2023/12/09 08:55:12;;;;;;;3.53;0.95;;;9.70;99.90;;;;;;4914735;29;20036;-89
2023/12/09 08:57:38;;;;;;;2.55;1.00;;;9.70;99.90;;;;;;4917773;29;20043;-89
2023/12/09 09:00:08;;;;;;;5.90;0.80;;;9.80;99.90;;;;;;4912445;29;20131;-88
2023/12/09 09:02:34;;;;;;;1.98;0.40;;;9.70;99.90;;;;;;4906415;29;20024;-85
2023/12/09 09:04:59;;;;;;;2.47;1.02;;;9.80;99.90;;;;;;4910151;29;20047;-84
2023/12/09 09:07:25;;;;;;;3.13;0.90;;;9.80;99.90;;;;;;4911372;29;20032;-85
2023/12/09 09:09:50;;;;;;;4.10;0.65;;;9.80;99.90;;;;;;4912867;29;20036;-84
2023/12/09 09:12:16;;;;;;;4.43;0.82;;;9.80;99.90;;;;;;4910879;29;20483;-85
2023/12/09 09:14:42;;;;;;;1.10;0.43;;;9.80;99.90;;;;;;4914410;29;20559;-84
2023/12/09 09:17:07;;;;;;;5.38;0.90;;;9.90;99.90;;;;;;4906244;29;20087;-84
2023/12/09 09:19:34;;;;;;;3.33;0.70;;;9.80;99.90;;;;;;4915172;29;20095;-84
2023/12/09 09:22:00;;;;;;;2.67;0.70;;;9.90;99.90;;;;;;4907791;29;21229;-84
2023/12/09 09:24:25;;;;;;;1.63;0.40;;;9.90;99.90;;;;;;4906253;29;20485;-85
2023/12/09 09:26:51;;;;;;;0.85;0.50;;;9.90;99.90;;;;;;4911487;29;20024;-85
2023/12/09 09:29:17;;;;;;;1.08;0.60;;;9.90;99.90;;;;;;4908158;29;20506;-85
2023/12/09 09:31:42;;;;;;;2.92;1.10;;;10.00;99.90;;;;;;4905238;29;20401;-86
2023/12/09 09:34:08;;;;;;;1.02;0.50;;;10.00;99.90;;;;;;4908242;29;20044;-85
2023/12/09 09:36:34;;;;;;;3.28;0.50;;;10.00;99.90;;;;;;4911095;29;20074;-85
2023/12/09 09:38:59;;;;;;;2.38;0.47;;;10.10;99.90;;;;;;4912214;29;20041;-85
2023/12/09 09:41:39;;;;;;;2.25;0.47;;;10.10;99.90;;;;;;4913461;29;20516;-85
2023/12/09 09:44:10;;;;;;;0.55;0.40;;;10.20;99.90;;;;;;4914039;29;20031;-85
2023/12/09 09:46:38;;;;;;;3.03;0.50;;;10.20;99.90;;;;;;4908994;29;20511;-85
2023/12/09 09:49:04;;;;;;;3.45;0.60;;;10.20;99.90;;;;;;4906429;29;20535;-85
2023/12/09 09:51:31;;;;;;;2.28;0.50;;;10.30;99.90;;;;;;4905740;29;20710;-85
2023/12/09 09:54:21;;;;;;;1.10;0.70;;;10.30;99.90;;;;;;4906014;29;20185;-85
2023/12/09 09:56:49;;;;;;;3.08;0.60;;;10.40;99.90;;;;;;4912677;29;20131;-84
2023/12/09 09:59:15;;;;;;;1.98;0.70;;;10.50;99.90;;;;;;4917006;29;20031;-87
2023/12/09 10:01:41;;;;;;;1.48;0.50;;;10.60;99.90;;;;;;4908931;29;20036;-88
2023/12/09 10:04:07;;;;;;;3.83;0.75;;;10.60;99.90;;;;;;4907024;29;20027;-88
2023/12/09 10:06:48;;;;;;;0.95;0.50;;;10.60;99.90;;;;;;4907127;29;20035;-88
2023/12/09 10:09:14;;;;;;;3.38;0.55;;;10.70;99.90;;;;;;4907082;29;20378;-88
2023/12/09 10:11:40;;;;;;;1.95;0.60;;;10.70;99.90;;;;;;4908763;29;20071;-87
2023/12/09 10:14:05;;;;;;;3.22;0.47;;;10.80;99.90;;;;;;4907216;29;20039;-87
2023/12/09 10:16:33;;;;;;;3.80;0.50;;;10.80;99.90;;;;;;4904284;29;20035;-87
2023/12/09 10:18:59;;;;;;;3.47;0.70;;;10.80;99.90;;;;;;4907243;29;20188;-87
2023/12/09 10:21:25;;;;;;;2.88;1.08;;;10.90;99.90;;;;;;4902457;29;20468;-87
2023/12/09 10:23:51;;;;;;;4.10;0.90;;;11.00;99.90;;;;;;4903644;29;20040;-87
2023/12/09 10:26:18;;;;;;;3.70;0.75;;;11.00;99.90;;;;;;4908983;29;20483;-87
2023/12/09 10:28:44;;;;;;;5.20;0.98;;;11.10;99.90;;;;;;4912381;29;20218;-88
2023/12/09 10:31:10;;;;;;;6.88;1.40;;;11.20;99.90;;;;;;4906180;29;20543;-88
2023/12/09 10:33:36;;;;;;;9.75;1.20;;;11.20;99.90;;;;;;4908969;29;20071;-88
2023/12/09 10:36:02;;;;;;;2.83;1.60;;;11.20;99.90;;;;;;4910105;29;20484;-87
2023/12/09 10:38:28;;;;;;;3.60;1.02;;;11.40;99.90;;;;;;4906647;29;20040;-88
2023/12/09 10:40:53;;;;;;;4.43;1.20;;;11.40;99.90;;;;;;4904345;29;20055;-89
2023/12/09 10:43:25;;;;;;;7.45;1.30;;;11.40;99.90;;;;;;4906114;29;20040;-88
2023/12/09 10:45:51;;;;;;;3.95;1.27;;;11.50;99.90;;;;;;4909589;29;20060;-89
2023/12/09 10:48:20;;;;;;;7.47;1.60;;;11.50;99.90;;;;;;4908754;29;20502;-88
2023/12/09 10:51:11;;;;;;;9.07;1.40;;;11.60;99.90;;;;;;4906942;29;20480;-88
2023/12/09 10:53:37;;;;;;;6.68;1.38;;;11.70;99.90;;;;;;4905834;29;21182;-88
2023/12/09 10:56:04;;;;;;;7.32;1.77;;;11.80;99.90;;;;;;4911158;29;20274;-88
2023/12/09 10:58:50;;;;;;;7.85;2.20;;;11.90;99.90;;;;;;4910406;29;20039;-88
2023/12/09 11:01:16;;;;;;;;;;;11.90;99.90;;;;;;4910756;29;20020;-88
2023/12/09 11:03:41;;;;;;;6.03;1.92;;;12.00;99.90;;;;;;4911129;28;19922;-89
2023/12/09 11:06:08;;;;;;;9.85;2.63;;;12.10;99.90;;;;;;4903117;29;20035;-88
2023/12/09 11:08:36;;;;;;;6.18;2.90;;;12.20;99.90;;;;;;4907691;29;20041;-87
2023/12/09 11:11:05;;;;;;;6.13;2.65;;;12.30;99.90;;;;;;4905499;29;20420;-88
2023/12/09 11:13:33;;;;;;;10.15;3.40;;;12.30;99.90;;;;;;4899894;29;20481;-88
2023/12/09 11:16:20;;;;;;;10.38;2.42;;;12.40;99.90;;;;;;4910871;29;20031;-88
2023/12/09 11:18:49;;;;;;;11.65;2.58;;;12.40;99.90;;;;;;4909353;29;20430;-88
2023/12/09 11:21:16;;;;;;;8.45;2.72;;;12.50;99.90;;;;;;4908193;29;20420;-87
2023/12/09 11:23:45;;;;;;;12.88;2.45;;;12.50;99.90;;;;;;4909547;29;20337;-89
2023/12/09 11:26:16;;;;;;;11.43;3.13;;;12.60;99.90;;;;;;4909039;29;20032;-88
2023/12/09 11:28:58;;;;;;;9.80;2.67;;;12.60;99.90;;;;;;4910471;29;20044;-89
2023/12/09 11:31:40;;;;;;;10.52;2.50;;;12.70;99.90;;;;;;4910167;29;20036;-88
2023/12/09 11:34:08;;;;;;;12.35;2.40;;;12.70;99.90;;;;;;4909539;29;20206;-88
2023/12/09 11:36:35;;;;;;;8.07;2.40;;;12.70;99.90;;;;;;4916858;29;20032;-87
2023/12/09 11:39:04;;;;;;;4.70;2.10;;;12.80;99.90;;;;;;4915407;29;20457;-88
2023/12/09 11:41:31;;;;;;;7.57;2.00;;;12.80;99.90;;;;;;4918839;29;20024;-88
2023/12/09 11:43:57;;;;;;;6.47;2.35;;;12.80;99.90;;;;;;4913120;29;20032;-89
2023/12/09 11:46:23;;;;;;;12.02;2.85;;;12.90;99.90;;;;;;4909316;29;20056;-88
2023/12/09 11:48:50;;;;;;;8.90;3.05;;;12.90;99.90;;;;;;4905967;29;20567;-88
2023/12/09 11:51:17;;;;;;;9.57;2.40;;;12.90;99.90;;;;;;4909433;29;20127;-89
2023/12/09 11:54:02;;;;;;;8.57;2.80;;;12.90;99.90;;;;;;4914465;29;20039;-88
2023/12/09 11:56:28;;;;;;;7.37;3.00;;;12.80;99.90;;;;;;4912482;29;20036;-88
2023/12/09 11:58:54;;;;;;;7.82;2.10;;;12.90;99.90;;;;;;4909198;29;20115;-88
2023/12/09 12:01:20;;;;;;;8.45;2.35;;;12.90;99.90;;;;;;4907333;29;20162;-89
2023/12/09 12:03:47;;;;;;;5.05;2.22;;;13.00;99.90;;;;;;4908848;29;20456;-89
2023/12/09 12:06:14;;;;;;;7.20;2.05;;;13.00;99.90;;;;;;4911092;29;20554;-90
2023/12/09 12:08:40;;;;;;;6.35;2.25;;;13.10;99.90;;;;;;4909715;29;20118;-89
2023/12/09 12:11:06;;;;;;;9.48;1.88;;;13.00;99.90;;;;;;4905759;29;20036;-90
2023/12/09 12:13:33;;;;;;;7.20;2.55;;;13.00;99.90;;;;;;4910124;29;20031;-89
2023/12/09 12:15:59;;;;;;;5.65;1.95;;;13.20;99.90;;;;;;4910873;28;20036;-89
2023/12/09 12:18:27;;;;;;;11.25;2.33;;;13.40;99.90;;;;;;4913079;29;20237;-90
2023/12/09 12:20:52;;;;;;;5.43;2.10;;;13.60;99.90;;;;;;4908919;29;20036;-90
2023/12/09 12:23:18;;;;;;;3.70;1.40;;;14.00;99.90;;;;;;4909559;29;20095;-90
2023/12/09 12:25:44;;;;;;;3.97;1.52;;;13.70;99.90;;;;;;4916054;29;20044;-91
2023/12/09 12:28:10;;;;;;;2.95;1.10;;;13.50;99.90;;;;;;4910887;29;20173;-91
2023/12/09 12:30:35;;;;;;;3.85;1.25;;;13.30;99.90;;;;;;4908265;29;20051;-90
2023/12/09 12:33:03;;;;;;;4.55;1.42;;;13.30;99.90;;;;;;4907071;29;20043;-90
2023/12/09 12:35:29;;;;;;;7.97;1.33;;;13.30;99.90;;;;;;4915070;29;20489;-91
2023/12/09 13:07:02;;;;;;;2.34;0.40;;;13.10;99.90;;;;;;4903270;23;1382885;-91
2023/12/09 13:09:28;;;;;;;0.55;0.20;;;13.00;99.90;;;;;;4923218;28;20107;-92
2023/12/09 13:11:54;;;;;;;0.70;0.30;;;12.80;99.90;;;;;;4909619;29;20026;-92
2023/12/09 13:14:20;;;;;;;0.85;0.20;;;12.70;99.90;;;;;;4914988;29;20102;-91
2023/12/09 13:16:45;;;;;;;0.85;0.30;;;12.80;99.90;;;;;;4911599;29;20036;-91
2023/12/09 13:19:11;;;;;;;1.40;0.38;;;12.80;99.90;;;;;;4911223;29;20035;-91